sensor_id;sensor_type;location;lat;lon;timestamp;temperature;humidity
33645;DHT22;19986;48.190;16.366;2023-12-22T00:00:30;10.30;99.90
33645;DHT22;19986;48.190;16.366;2023-12-22T00:02:56;10.30;99.90
33645;DHT22;19986;48.190;16.366;2023-12-22T00:05:21;10.30;99.90
33645;DHT22;19986;48.190;16.366;2023-12-22T00:07:47;10.30;99.90
33645;DHT22;19986;48.190;16.366;2023-12-22T00:10:13;10.20;99.90
33645;DHT22;19986;48.190;16.366;2023-12-22T00:12:39;10.30;99.90
33645;DHT22;19986;48.190;16.366;2023-12-22T00:15:05;10.30;99.90
33645;DHT22;19986;48.190;16.366;2023-12-22T00:17:31;10.30;99.90
33645;DHT22;19986;48.190;16.366;2023-12-22T00:19:57;10.40;99.90
33645;DHT22;19986;48.190;16.366;2023-12-22T00:22:25;10.40;99.90
33645;DHT22;19986;48.190;16.366;2023-12-22T00:24:51;10.50;99.90
33645;DHT22;19986;48.190;16.366;2023-12-22T00:27:17;10.40;99.90
33645;DHT22;19986;48.190;16.366;2023-12-22T00:29:43;10.40;99.90
33645;DHT22;19986;48.190;16.366;2023-12-22T00:32:08;10.40;99.90
33645;DHT22;19986;48.190;16.366;2023-12-22T00:34:37;10.40;99.90
33645;DHT22;19986;48.190;16.366;2023-12-22T00:37:03;10.40;99.90
33645;DHT22;19986;48.190;16.366;2023-12-22T00:39:30;10.40;99.90
33645;DHT22;19986;48.190;16.366;2023-12-22T00:41:57;10.40;99.90
33645;DHT22;19986;48.190;16.366;2023-12-22T00:44:22;10.40;99.90
33645;DHT22;19986;48.190;16.366;2023-12-22T00:46:49;10.50;99.90
33645;DHT22;19986;48.190;16.366;2023-12-22T00:49:15;10.40;99.90
33645;DHT22;19986;48.190;16.366;2023-12-22T00:51:40;10.40;99.90
33645;DHT22;19986;48.190;16.366;2023-12-22T00:54:06;10.40;99.90
33645;DHT22;19986;48.190;16.366;2023-12-22T00:56:32;10.40;99.90
33645;DHT22;19986;48.190;16.366;2023-12-22T00:58:58;10.40;99.90
33645;DHT22;19986;48.190;16.366;2023-12-22T01:01:24;10.40;99.90
33645;DHT22;19986;48.190;16.366;2023-12-22T01:03:50;10.40;99.90
33645;DHT22;19986;48.190;16.366;2023-12-22T01:06:16;10.40;99.90
33645;DHT22;19986;48.190;16.366;2023-12-22T01:08:42;10.40;99.90
33645;DHT22;19986;48.190;16.366;2023-12-22T01:11:08;10.30;99.90
33645;DHT22;19986;48.190;16.366;2023-12-22T01:13:34;10.30;99.90
33645;DHT22;19986;48.190;16.366;2023-12-22T01:15:59;10.30;99.90
33645;DHT22;19986;48.190;16.366;2023-12-22T01:18:25;10.40;99.90
33645;DHT22;19986;48.190;16.366;2023-12-22T01:20:57;10.40;99.90
33645;DHT22;19986;48.190;16.366;2023-12-22T01:23:23;10.30;99.90
33645;DHT22;19986;48.190;16.366;2023-12-22T01:25:51;10.40;99.90
33645;DHT22;19986;48.190;16.366;2023-12-22T01:28:16;10.40;99.90
33645;DHT22;19986;48.190;16.366;2023-12-22T01:30:42;10.40;99.90
33645;DHT22;19986;48.190;16.366;2023-12-22T01:33:08;10.40;99.90
33645;DHT22;19986;48.190;16.366;2023-12-22T01:35:34;10.30;99.90
33645;DHT22;19986;48.190;16.366;2023-12-22T01:38:01;10.40;99.90
33645;DHT22;19986;48.190;16.366;2023-12-22T01:40:27;10.40;99.90
33645;DHT22;19986;48.190;16.366;2023-12-22T01:42:54;10.40;99.90
33645;DHT22;19986;48.190;16.366;2023-12-22T01:45:21;10.30;99.90
33645;DHT22;19986;48.190;16.366;2023-12-22T01:47:47;10.30;99.90
33645;DHT22;19986;48.190;16.366;2023-12-22T01:50:13;10.30;99.90
33645;DHT22;19986;48.190;16.366;2023-12-22T01:52:42;10.30;99.90
33645;DHT22;19986;48.190;16.366;2023-12-22T01:55:11;10.30;99.90
33645;DHT22;19986;48.190;16.366;2023-12-22T01:57:39;10.30;99.90
33645;DHT22;19986;48.190;16.366;2023-12-22T02:00:07;10.30;99.90
33645;DHT22;19986;48.190;16.366;2023-12-22T02:02:33;10.30;99.90
33645;DHT22;19986;48.190;16.366;2023-12-22T02:05:00;10.30;99.90
33645;DHT22;19986;48.190;16.366;2023-12-22T02:07:27;10.30;99.90
33645;DHT22;19986;48.190;16.366;2023-12-22T02:09:55;10.30;99.90
33645;DHT22;19986;48.190;16.366;2023-12-22T02:12:22;10.30;99.90
33645;DHT22;19986;48.190;16.366;2023-12-22T02:14:49;10.30;99.90
33645;DHT22;19986;48.190;16.366;2023-12-22T02:17:39;10.30;99.90
33645;DHT22;19986;48.190;16.366;2023-12-22T02:20:07;10.40;99.90
33645;DHT22;19986;48.190;16.366;2023-12-22T02:22:35;10.30;99.90
33645;DHT22;19986;48.190;16.366;2023-12-22T02:25:01;10.30;99.90
33645;DHT22;19986;48.190;16.366;2023-12-22T02:27:48;10.10;99.90
33645;DHT22;19986;48.190;16.366;2023-12-22T02:30:23;10.10;99.90
33645;DHT22;19986;48.190;16.366;2023-12-22T02:32:52;9.90;99.90
33645;DHT22;19986;48.190;16.366;2023-12-22T02:35:22;9.90;99.90
33645;DHT22;19986;48.190;16.366;2023-12-22T02:37:49;9.90;99.90
33645;DHT22;19986;48.190;16.366;2023-12-22T02:40:15;9.90;99.90
33645;DHT22;19986;48.190;16.366;2023-12-22T02:42:42;9.90;99.90
33645;DHT22;19986;48.190;16.366;2023-12-22T02:45:17;9.80;99.90
33645;DHT22;19986;48.190;16.366;2023-12-22T02:47:43;9.80;99.90
33645;DHT22;19986;48.190;16.366;2023-12-22T02:50:10;9.80;99.90
33645;DHT22;19986;48.190;16.366;2023-12-22T02:52:38;9.70;99.90
33645;DHT22;19986;48.190;16.366;2023-12-22T02:55:04;9.70;99.90
33645;DHT22;19986;48.190;16.366;2023-12-22T02:57:30;9.70;99.90
33645;DHT22;19986;48.190;16.366;2023-12-22T02:59:57;9.70;99.90
33645;DHT22;19986;48.190;16.366;2023-12-22T03:02:23;9.70;99.90
33645;DHT22;19986;48.190;16.366;2023-12-22T03:04:50;9.70;99.90
33645;DHT22;19986;48.190;16.366;2023-12-22T03:07:16;9.70;99.90
33645;DHT22;19986;48.190;16.366;2023-12-22T03:09:43;9.80;99.90
33645;DHT22;19986;48.190;16.366;2023-12-22T03:12:10;9.80;99.90
33645;DHT22;19986;48.190;16.366;2023-12-22T03:14:36;9.80;99.90
33645;DHT22;19986;48.190;16.366;2023-12-22T03:17:03;9.80;99.90
33645;DHT22;19986;48.190;16.366;2023-12-22T03:19:30;9.90;99.90
33645;DHT22;19986;48.190;16.366;2023-12-22T03:21:56;9.80;99.90
33645;DHT22;19986;48.190;16.366;2023-12-22T03:24:26;9.80;99.90
33645;DHT22;19986;48.190;16.366;2023-12-22T03:26:52;9.80;99.90
33645;DHT22;19986;48.190;16.366;2023-12-22T03:29:18;9.60;99.90
33645;DHT22;19986;48.190;16.366;2023-12-22T03:31:45;9.50;99.90
33645;DHT22;19986;48.190;16.366;2023-12-22T03:34:11;9.50;99.90
33645;DHT22;19986;48.190;16.366;2023-12-22T03:36:37;9.50;99.90
33645;DHT22;19986;48.190;16.366;2023-12-22T03:39:03;9.40;99.90
33645;DHT22;19986;48.190;16.366;2023-12-22T03:41:30;9.30;99.90
33645;DHT22;19986;48.190;16.366;2023-12-22T03:43:56;9.30;99.90
33645;DHT22;19986;48.190;16.366;2023-12-22T03:46:22;9.20;99.90
33645;DHT22;19986;48.190;16.366;2023-12-22T03:48:50;9.20;99.90
33645;DHT22;19986;48.190;16.366;2023-12-22T03:51:15;9.20;99.90
33645;DHT22;19986;48.190;16.366;2023-12-22T03:53:41;9.30;99.90
33645;DHT22;19986;48.190;16.366;2023-12-22T03:56:08;9.30;99.90
33645;DHT22;19986;48.190;16.366;2023-12-22T03:58:35;9.30;99.90
33645;DHT22;19986;48.190;16.366;2023-12-22T04:01:01;9.40;99.90
33645;DHT22;19986;48.190;16.366;2023-12-22T04:03:27;9.30;99.90
33645;DHT22;19986;48.190;16.366;2023-12-22T04:05:53;9.30;99.90
33645;DHT22;19986;48.190;16.366;2023-12-22T04:08:19;9.20;99.90
33645;DHT22;19986;48.190;16.366;2023-12-22T04:10:48;9.20;99.90
33645;DHT22;19986;48.190;16.366;2023-12-22T04:13:14;9.20;99.90
33645;DHT22;19986;48.190;16.366;2023-12-22T04:15:40;9.30;99.90
33645;DHT22;19986;48.190;16.366;2023-12-22T04:18:07;9.30;99.90
33645;DHT22;19986;48.190;16.366;2023-12-22T04:20:32;9.30;99.90
33645;DHT22;19986;48.190;16.366;2023-12-22T04:22:58;9.30;99.90
33645;DHT22;19986;48.190;16.366;2023-12-22T04:25:24;9.30;99.90
33645;DHT22;19986;48.190;16.366;2023-12-22T04:27:51;9.30;99.90
33645;DHT22;19986;48.190;16.366;2023-12-22T04:30:17;9.20;99.90
33645;DHT22;19986;48.190;16.366;2023-12-22T04:32:43;9.20;99.90
33645;DHT22;19986;48.190;16.366;2023-12-22T04:35:09;9.20;99.90
33645;DHT22;19986;48.190;16.366;2023-12-22T04:37:35;9.10;99.90
33645;DHT22;19986;48.190;16.366;2023-12-22T04:40:01;9.00;99.90
33645;DHT22;19986;48.190;16.366;2023-12-22T04:42:27;9.10;99.90
33645;DHT22;19986;48.190;16.366;2023-12-22T04:44:53;9.00;99.90
33645;DHT22;19986;48.190;16.366;2023-12-22T04:47:19;9.00;99.90
33645;DHT22;19986;48.190;16.366;2023-12-22T04:49:46;9.00;99.90
33645;DHT22;19986;48.190;16.366;2023-12-22T04:52:12;9.10;99.90
33645;DHT22;19986;48.190;16.366;2023-12-22T04:54:38;9.10;99.90
33645;DHT22;19986;48.190;16.366;2023-12-22T04:57:04;9.20;99.90
33645;DHT22;19986;48.190;16.366;2023-12-22T04:59:30;9.20;99.90
33645;DHT22;19986;48.190;16.366;2023-12-22T05:01:57;9.20;99.90
33645;DHT22;19986;48.190;16.366;2023-12-22T05:04:23;9.20;99.90
33645;DHT22;19986;48.190;16.366;2023-12-22T05:06:49;9.30;99.90
33645;DHT22;19986;48.190;16.366;2023-12-22T05:09:15;9.30;99.90
33645;DHT22;19986;48.190;16.366;2023-12-22T05:11:42;9.30;99.90
33645;DHT22;19986;48.190;16.366;2023-12-22T05:14:09;9.30;99.90
33645;DHT22;19986;48.190;16.366;2023-12-22T05:16:35;9.30;99.90
33645;DHT22;19986;48.190;16.366;2023-12-22T05:19:01;9.30;99.90
33645;DHT22;19986;48.190;16.366;2023-12-22T05:21:27;9.30;99.90
33645;DHT22;19986;48.190;16.366;2023-12-22T05:23:55;9.30;99.90
33645;DHT22;19986;48.190;16.366;2023-12-22T05:26:22;9.40;99.90
33645;DHT22;19986;48.190;16.366;2023-12-22T05:28:48;9.40;99.90
33645;DHT22;19986;48.190;16.366;2023-12-22T05:31:17;9.40;99.90
33645;DHT22;19986;48.190;16.366;2023-12-22T05:33:43;9.30;99.90
33645;DHT22;19986;48.190;16.366;2023-12-22T05:36:09;9.30;99.90
33645;DHT22;19986;48.190;16.366;2023-12-22T05:38:40;9.30;99.90
33645;DHT22;19986;48.190;16.366;2023-12-22T05:41:06;9.40;99.90
33645;DHT22;19986;48.190;16.366;2023-12-22T05:43:33;9.40;99.90
33645;DHT22;19986;48.190;16.366;2023-12-22T05:45:59;9.50;99.90
33645;DHT22;19986;48.190;16.366;2023-12-22T05:48:28;9.50;99.90
33645;DHT22;19986;48.190;16.366;2023-12-22T05:50:57;9.50;99.90
33645;DHT22;19986;48.190;16.366;2023-12-22T05:53:27;9.40;99.90
33645;DHT22;19986;48.190;16.366;2023-12-22T05:55:53;9.40;99.90
33645;DHT22;19986;48.190;16.366;2023-12-22T05:58:19;9.30;99.90
33645;DHT22;19986;48.190;16.366;2023-12-22T06:00:45;9.30;99.90
33645;DHT22;19986;48.190;16.366;2023-12-22T06:03:11;9.30;99.90
33645;DHT22;19986;48.190;16.366;2023-12-22T06:05:37;9.20;99.90
33645;DHT22;19986;48.190;16.366;2023-12-22T06:08:03;9.20;99.90
33645;DHT22;19986;48.190;16.366;2023-12-22T06:10:28;9.20;99.90
33645;DHT22;19986;48.190;16.366;2023-12-22T06:12:54;9.20;99.90
33645;DHT22;19986;48.190;16.366;2023-12-22T06:15:20;9.20;99.90
33645;DHT22;19986;48.190;16.366;2023-12-22T06:17:46;9.10;99.90
33645;DHT22;19986;48.190;16.366;2023-12-22T06:20:12;9.00;99.90
33645;DHT22;19986;48.190;16.366;2023-12-22T06:22:38;8.90;99.90
33645;DHT22;19986;48.190;16.366;2023-12-22T06:25:04;8.80;99.90
33645;DHT22;19986;48.190;16.366;2023-12-22T06:27:33;8.80;99.90
33645;DHT22;19986;48.190;16.366;2023-12-22T06:29:59;8.80;99.90
33645;DHT22;19986;48.190;16.366;2023-12-22T06:32:25;8.70;99.90
33645;DHT22;19986;48.190;16.366;2023-12-22T06:34:51;8.70;99.90
33645;DHT22;19986;48.190;16.366;2023-12-22T06:37:17;8.70;99.90
33645;DHT22;19986;48.190;16.366;2023-12-22T06:39:42;8.60;99.90
33645;DHT22;19986;48.190;16.366;2023-12-22T06:42:08;8.60;99.90
33645;DHT22;19986;48.190;16.366;2023-12-22T06:44:41;8.50;99.90
33645;DHT22;19986;48.190;16.366;2023-12-22T06:47:09;8.50;99.90
33645;DHT22;19986;48.190;16.366;2023-12-22T06:49:35;8.50;99.90
33645;DHT22;19986;48.190;16.366;2023-12-22T06:52:00;8.50;99.90
33645;DHT22;19986;48.190;16.366;2023-12-22T06:54:27;8.50;99.90
33645;DHT22;19986;48.190;16.366;2023-12-22T06:56:53;8.50;99.90
33645;DHT22;19986;48.190;16.366;2023-12-22T06:59:18;8.50;99.90
33645;DHT22;19986;48.190;16.366;2023-12-22T07:01:44;8.50;99.90
33645;DHT22;19986;48.190;16.366;2023-12-22T07:04:10;8.50;99.90
33645;DHT22;19986;48.190;16.366;2023-12-22T07:06:36;8.50;99.90
33645;DHT22;19986;48.190;16.366;2023-12-22T07:11:48;8.70;99.90
33645;DHT22;19986;48.190;16.366;2023-12-22T07:14:15;8.70;99.90
33645;DHT22;19986;48.190;16.366;2023-12-22T07:16:41;8.70;99.90
33645;DHT22;19986;48.190;16.366;2023-12-22T07:19:11;8.70;99.90
33645;DHT22;19986;48.190;16.366;2023-12-22T07:21:40;8.70;99.90
33645;DHT22;19986;48.190;16.366;2023-12-22T07:24:06;8.80;99.90
33645;DHT22;19986;48.190;16.366;2023-12-22T07:26:33;8.80;99.90
33645;DHT22;19986;48.190;16.366;2023-12-22T07:29:00;8.80;99.90
33645;DHT22;19986;48.190;16.366;2023-12-22T07:31:25;8.80;99.90
33645;DHT22;19986;48.190;16.366;2023-12-22T07:33:52;8.90;99.90
33645;DHT22;19986;48.190;16.366;2023-12-22T07:36:18;8.90;99.90
33645;DHT22;19986;48.190;16.366;2023-12-22T07:38:47;8.80;99.90
33645;DHT22;19986;48.190;16.366;2023-12-22T07:41:13;8.90;99.90
33645;DHT22;19986;48.190;16.366;2023-12-22T07:43:38;8.90;99.90
33645;DHT22;19986;48.190;16.366;2023-12-22T07:46:04;9.00;99.90
33645;DHT22;19986;48.190;16.366;2023-12-22T07:48:30;9.10;99.90
33645;DHT22;19986;48.190;16.366;2023-12-22T07:50:56;9.10;99.90
33645;DHT22;19986;48.190;16.366;2023-12-22T07:53:22;9.10;99.90
33645;DHT22;19986;48.190;16.366;2023-12-22T07:55:48;9.10;99.90
33645;DHT22;19986;48.190;16.366;2023-12-22T07:58:14;9.20;99.90
33645;DHT22;19986;48.190;16.366;2023-12-22T08:00:40;9.10;99.90
33645;DHT22;19986;48.190;16.366;2023-12-22T08:03:06;9.20;99.90
33645;DHT22;19986;48.190;16.366;2023-12-22T08:05:31;9.30;99.90
33645;DHT22;19986;48.190;16.366;2023-12-22T08:07:59;9.30;99.90
33645;DHT22;19986;48.190;16.366;2023-12-22T08:10:24;9.30;99.90
33645;DHT22;19986;48.190;16.366;2023-12-22T08:12:50;9.30;99.90
33645;DHT22;19986;48.190;16.366;2023-12-22T08:15:16;9.30;99.90
33645;DHT22;19986;48.190;16.366;2023-12-22T08:17:51;9.20;99.90
33645;DHT22;19986;48.190;16.366;2023-12-22T08:20:19;9.30;99.90
33645;DHT22;19986;48.190;16.366;2023-12-22T08:22:49;9.20;99.90
33645;DHT22;19986;48.190;16.366;2023-12-22T08:25:16;9.20;99.90
33645;DHT22;19986;48.190;16.366;2023-12-22T08:27:43;9.20;99.90
33645;DHT22;19986;48.190;16.366;2023-12-22T08:30:09;9.30;99.90
33645;DHT22;19986;48.190;16.366;2023-12-22T08:32:35;9.30;99.90
33645;DHT22;19986;48.190;16.366;2023-12-22T08:35:01;9.30;99.90
33645;DHT22;19986;48.190;16.366;2023-12-22T08:37:27;9.30;99.90
33645;DHT22;19986;48.190;16.366;2023-12-22T08:39:53;9.30;99.90
33645;DHT22;19986;48.190;16.366;2023-12-22T08:42:18;9.20;99.90
33645;DHT22;19986;48.190;16.366;2023-12-22T08:44:44;9.20;99.90
33645;DHT22;19986;48.190;16.366;2023-12-22T08:47:10;9.20;99.90
33645;DHT22;19986;48.190;16.366;2023-12-22T08:49:36;9.10;99.90
33645;DHT22;19986;48.190;16.366;2023-12-22T08:52:02;9.10;99.90
33645;DHT22;19986;48.190;16.366;2023-12-22T08:54:30;9.00;99.90
33645;DHT22;19986;48.190;16.366;2023-12-22T08:56:56;9.00;99.90
33645;DHT22;19986;48.190;16.366;2023-12-22T08:59:22;9.00;99.90
33645;DHT22;19986;48.190;16.366;2023-12-22T09:01:48;9.00;99.90
33645;DHT22;19986;48.190;16.366;2023-12-22T09:04:14;9.10;99.90
33645;DHT22;19986;48.190;16.366;2023-12-22T09:06:42;9.10;99.90
33645;DHT22;19986;48.190;16.366;2023-12-22T09:09:08;9.10;99.90
33645;DHT22;19986;48.190;16.366;2023-12-22T09:11:35;9.10;99.90
33645;DHT22;19986;48.190;16.366;2023-12-22T09:14:01;9.20;99.90
33645;DHT22;19986;48.190;16.366;2023-12-22T09:16:27;9.20;99.90
33645;DHT22;19986;48.190;16.366;2023-12-22T09:18:53;9.20;99.90
33645;DHT22;19986;48.190;16.366;2023-12-22T09:21:19;9.30;99.90
33645;DHT22;19986;48.190;16.366;2023-12-22T09:23:46;9.30;99.90
33645;DHT22;19986;48.190;16.366;2023-12-22T09:26:15;9.30;99.90
33645;DHT22;19986;48.190;16.366;2023-12-22T09:28:42;9.30;99.90
33645;DHT22;19986;48.190;16.366;2023-12-22T09:31:08;9.40;99.90
33645;DHT22;19986;48.190;16.366;2023-12-22T09:33:35;9.30;99.90
33645;DHT22;19986;48.190;16.366;2023-12-22T09:36:01;9.40;99.90
33645;DHT22;19986;48.190;16.366;2023-12-22T09:38:26;9.50;99.90
33645;DHT22;19986;48.190;16.366;2023-12-22T09:40:54;9.50;99.90
33645;DHT22;19986;48.190;16.366;2023-12-22T09:43:20;9.70;99.90
33645;DHT22;19986;48.190;16.366;2023-12-22T09:45:46;9.80;99.90
33645;DHT22;19986;48.190;16.366;2023-12-22T09:48:15;10.00;99.90
33645;DHT22;19986;48.190;16.366;2023-12-22T09:50:44;10.10;99.90
33645;DHT22;19986;48.190;16.366;2023-12-22T09:53:12;10.10;99.90
33645;DHT22;19986;48.190;16.366;2023-12-22T09:55:42;10.10;99.90
33645;DHT22;19986;48.190;16.366;2023-12-22T09:58:10;10.10;99.90
33645;DHT22;19986;48.190;16.366;2023-12-22T10:00:37;10.10;99.90
33645;DHT22;19986;48.190;16.366;2023-12-22T10:03:06;10.10;99.90
33645;DHT22;19986;48.190;16.366;2023-12-22T10:05:32;10.00;99.90
33645;DHT22;19986;48.190;16.366;2023-12-22T10:08:00;10.00;99.90
33645;DHT22;19986;48.190;16.366;2023-12-22T10:10:28;10.10;99.90
33645;DHT22;19986;48.190;16.366;2023-12-22T10:12:55;10.10;99.90
33645;DHT22;19986;48.190;16.366;2023-12-22T10:15:22;10.10;99.90
33645;DHT22;19986;48.190;16.366;2023-12-22T10:17:52;10.00;99.90
33645;DHT22;19986;48.190;16.366;2023-12-22T10:20:19;10.10;99.90
33645;DHT22;19986;48.190;16.366;2023-12-22T10:22:45;10.10;99.90
33645;DHT22;19986;48.190;16.366;2023-12-22T10:25:15;10.10;99.90
33645;DHT22;19986;48.190;16.366;2023-12-22T10:27:43;10.20;99.90
33645;DHT22;19986;48.190;16.366;2023-12-22T10:30:09;10.20;99.90
33645;DHT22;19986;48.190;16.366;2023-12-22T10:32:41;10.30;99.90
33645;DHT22;19986;48.190;16.366;2023-12-22T10:35:11;10.30;99.90
33645;DHT22;19986;48.190;16.366;2023-12-22T10:37:38;10.40;99.90
33645;DHT22;19986;48.190;16.366;2023-12-22T10:40:04;10.50;99.90
33645;DHT22;19986;48.190;16.366;2023-12-22T10:42:32;10.60;99.90
33645;DHT22;19986;48.190;16.366;2023-12-22T10:44:58;10.80;99.90
33645;DHT22;19986;48.190;16.366;2023-12-22T10:47:24;10.80;99.90
33645;DHT22;19986;48.190;16.366;2023-12-22T10:49:50;10.80;99.90
33645;DHT22;19986;48.190;16.366;2023-12-22T10:52:17;10.80;99.90
33645;DHT22;19986;48.190;16.366;2023-12-22T10:54:43;10.90;99.90
33645;DHT22;19986;48.190;16.366;2023-12-22T10:57:10;10.80;99.90
33645;DHT22;19986;48.190;16.366;2023-12-22T10:59:40;10.80;99.90
33645;DHT22;19986;48.190;16.366;2023-12-22T11:02:15;10.90;99.90
33645;DHT22;19986;48.190;16.366;2023-12-22T11:04:57;10.90;99.90
33645;DHT22;19986;48.190;16.366;2023-12-22T11:07:28;10.90;99.90
33645;DHT22;19986;48.190;16.366;2023-12-22T11:09:56;11.00;99.90
33645;DHT22;19986;48.190;16.366;2023-12-22T11:12:24;10.90;99.90
33645;DHT22;19986;48.190;16.366;2023-12-22T11:14:52;11.00;99.90
33645;DHT22;19986;48.190;16.366;2023-12-22T11:17:22;11.10;99.90
33645;DHT22;19986;48.190;16.366;2023-12-22T11:19:54;11.00;99.90
33645;DHT22;19986;48.190;16.366;2023-12-22T11:22:22;10.90;99.90
33645;DHT22;19986;48.190;16.366;2023-12-22T11:24:49;10.80;99.90
33645;DHT22;19986;48.190;16.366;2023-12-22T11:27:19;10.70;99.90
33645;DHT22;19986;48.190;16.366;2023-12-22T11:29:49;10.60;99.90
33645;DHT22;19986;48.190;16.366;2023-12-22T11:32:16;10.50;99.90
33645;DHT22;19986;48.190;16.366;2023-12-22T11:34:43;10.40;99.90
33645;DHT22;19986;48.190;16.366;2023-12-22T11:37:11;10.40;99.90
33645;DHT22;19986;48.190;16.366;2023-12-22T11:39:40;10.30;99.90
33645;DHT22;19986;48.190;16.366;2023-12-22T11:42:10;10.20;99.90
33645;DHT22;19986;48.190;16.366;2023-12-22T11:44:37;10.10;99.90
33645;DHT22;19986;48.190;16.366;2023-12-22T11:47:08;10.00;99.90
33645;DHT22;19986;48.190;16.366;2023-12-22T11:49:36;10.10;99.90
33645;DHT22;19986;48.190;16.366;2023-12-22T11:52:15;10.10;99.90
33645;DHT22;19986;48.190;16.366;2023-12-22T11:54:47;10.20;99.90
33645;DHT22;19986;48.190;16.366;2023-12-22T11:57:38;10.20;99.90
33645;DHT22;19986;48.190;16.366;2023-12-22T12:00:09;10.20;99.90
33645;DHT22;19986;48.190;16.366;2023-12-22T12:02:57;10.30;99.90
33645;DHT22;19986;48.190;16.366;2023-12-22T12:05:23;10.30;99.90
33645;DHT22;19986;48.190;16.366;2023-12-22T12:07:49;10.40;99.90
33645;DHT22;19986;48.190;16.366;2023-12-22T12:13:09;10.60;99.90
33645;DHT22;19986;48.190;16.366;2023-12-22T12:15:36;10.60;99.90
33645;DHT22;19986;48.190;16.366;2023-12-22T12:18:03;10.60;99.90
33645;DHT22;19986;48.190;16.366;2023-12-22T12:20:31;10.50;99.90
33645;DHT22;19986;48.190;16.366;2023-12-22T12:22:57;10.50;99.90
33645;DHT22;19986;48.190;16.366;2023-12-22T12:25:23;10.60;99.90
33645;DHT22;19986;48.190;16.366;2023-12-22T12:28:00;10.40;99.90
33645;DHT22;19986;48.190;16.366;2023-12-22T12:30:27;10.30;99.90
33645;DHT22;19986;48.190;16.366;2023-12-22T12:32:53;10.30;99.90
33645;DHT22;19986;48.190;16.366;2023-12-22T12:35:19;10.30;99.90
33645;DHT22;19986;48.190;16.366;2023-12-22T12:37:45;10.30;99.90
33645;DHT22;19986;48.190;16.366;2023-12-22T12:40:11;10.40;99.90
33645;DHT22;19986;48.190;16.366;2023-12-22T12:42:38;10.40;99.90
33645;DHT22;19986;48.190;16.366;2023-12-22T12:45:05;10.30;99.90
33645;DHT22;19986;48.190;16.366;2023-12-22T12:47:31;10.40;99.90
33645;DHT22;19986;48.190;16.366;2023-12-22T12:49:58;10.40;99.90
33645;DHT22;19986;48.190;16.366;2023-12-22T12:52:25;10.50;99.90
33645;DHT22;19986;48.190;16.366;2023-12-22T12:54:51;10.50;99.90
33645;DHT22;19986;48.190;16.366;2023-12-22T12:57:18;10.60;99.90
33645;DHT22;19986;48.190;16.366;2023-12-22T12:59:47;10.60;99.90
33645;DHT22;19986;48.190;16.366;2023-12-22T13:02:15;10.60;99.90
33645;DHT22;19986;48.190;16.366;2023-12-22T13:04:41;10.60;99.90
33645;DHT22;19986;48.190;16.366;2023-12-22T13:07:06;10.50;99.90
33645;DHT22;19986;48.190;16.366;2023-12-22T13:09:33;10.50;99.90
33645;DHT22;19986;48.190;16.366;2023-12-22T13:12:00;10.50;99.90
33645;DHT22;19986;48.190;16.366;2023-12-22T13:14:26;10.40;99.90
33645;DHT22;19986;48.190;16.366;2023-12-22T13:16:53;10.40;99.90
33645;DHT22;19986;48.190;16.366;2023-12-22T13:19:23;10.40;99.90
33645;DHT22;19986;48.190;16.366;2023-12-22T13:21:56;10.40;99.90
33645;DHT22;19986;48.190;16.366;2023-12-22T13:24:22;10.30;99.90
33645;DHT22;19986;48.190;16.366;2023-12-22T13:26:59;10.40;99.90
33645;DHT22;19986;48.190;16.366;2023-12-22T13:29:26;10.40;99.90
33645;DHT22;19986;48.190;16.366;2023-12-22T13:31:54;10.40;99.90
33645;DHT22;19986;48.190;16.366;2023-12-22T13:34:20;10.30;99.90
33645;DHT22;19986;48.190;16.366;2023-12-22T13:36:46;10.30;99.90
33645;DHT22;19986;48.190;16.366;2023-12-22T13:39:13;10.40;99.90
33645;DHT22;19986;48.190;16.366;2023-12-22T13:41:40;10.50;99.90
33645;DHT22;19986;48.190;16.366;2023-12-22T13:44:07;10.60;99.90
33645;DHT22;19986;48.190;16.366;2023-12-22T13:46:34;10.60;99.90
33645;DHT22;19986;48.190;16.366;2023-12-22T13:49:04;10.60;99.90
33645;DHT22;19986;48.190;16.366;2023-12-22T13:51:43;10.50;99.90
33645;DHT22;19986;48.190;16.366;2023-12-22T13:54:09;10.60;99.90
33645;DHT22;19986;48.190;16.366;2023-12-22T13:56:36;10.60;99.90
33645;DHT22;19986;48.190;16.366;2023-12-22T13:59:03;10.60;99.90
33645;DHT22;19986;48.190;16.366;2023-12-22T14:01:30;10.60;99.90
33645;DHT22;19986;48.190;16.366;2023-12-22T14:03:56;10.60;99.90
33645;DHT22;19986;48.190;16.366;2023-12-22T14:06:28;10.60;99.90
33645;DHT22;19986;48.190;16.366;2023-12-22T14:08:55;10.60;99.90
33645;DHT22;19986;48.190;16.366;2023-12-22T14:11:22;10.60;99.90
33645;DHT22;19986;48.190;16.366;2023-12-22T14:13:48;10.60;99.90
33645;DHT22;19986;48.190;16.366;2023-12-22T14:16:15;10.50;99.90
33645;DHT22;19986;48.190;16.366;2023-12-22T14:18:42;10.60;99.90
33645;DHT22;19986;48.190;16.366;2023-12-22T14:21:08;10.60;99.90
33645;DHT22;19986;48.190;16.366;2023-12-22T14:23:34;10.70;99.90
33645;DHT22;19986;48.190;16.366;2023-12-22T14:26:00;10.60;99.90
33645;DHT22;19986;48.190;16.366;2023-12-22T14:28:26;10.50;99.90
33645;DHT22;19986;48.190;16.366;2023-12-22T14:30:53;10.50;99.90
33645;DHT22;19986;48.190;16.366;2023-12-22T14:33:19;10.60;99.90
33645;DHT22;19986;48.190;16.366;2023-12-22T14:35:45;10.50;99.90
33645;DHT22;19986;48.190;16.366;2023-12-22T14:38:10;10.50;99.90
33645;DHT22;19986;48.190;16.366;2023-12-22T14:40:36;10.50;99.90
33645;DHT22;19986;48.190;16.366;2023-12-22T14:43:02;10.40;99.90
33645;DHT22;19986;48.190;16.366;2023-12-22T14:45:28;10.40;99.90
33645;DHT22;19986;48.190;16.366;2023-12-22T14:47:54;10.20;99.90
33645;DHT22;19986;48.190;16.366;2023-12-22T14:50:20;10.10;99.90
33645;DHT22;19986;48.190;16.366;2023-12-22T14:52:46;10.10;99.90
33645;DHT22;19986;48.190;16.366;2023-12-22T14:55:12;9.90;99.90
33645;DHT22;19986;48.190;16.366;2023-12-22T14:57:37;9.80;99.90
33645;DHT22;19986;48.190;16.366;2023-12-22T15:00:04;9.60;99.90
33645;DHT22;19986;48.190;16.366;2023-12-22T15:02:31;9.60;99.90
33645;DHT22;19986;48.190;16.366;2023-12-22T15:04:57;9.40;99.90
33645;DHT22;19986;48.190;16.366;2023-12-22T15:07:23;9.20;99.90
33645;DHT22;19986;48.190;16.366;2023-12-22T15:09:49;9.10;99.90
33645;DHT22;19986;48.190;16.366;2023-12-22T15:12:15;9.00;99.90
33645;DHT22;19986;48.190;16.366;2023-12-22T15:14:45;8.90;99.90
33645;DHT22;19986;48.190;16.366;2023-12-22T15:17:11;8.80;99.90
33645;DHT22;19986;48.190;16.366;2023-12-22T15:19:40;8.70;99.90
33645;DHT22;19986;48.190;16.366;2023-12-22T15:22:08;8.60;99.90
33645;DHT22;19986;48.190;16.366;2023-12-22T15:24:40;8.60;99.90
33645;DHT22;19986;48.190;16.366;2023-12-22T15:27:11;8.50;99.90